sensor_id;sensor_type;location;lat;lon;timestamp;temperature;humidity
23815;DHT22;12088;53.078;8.720;2022-10-31T00:00:52;12.60;99.90
23815;DHT22;12088;53.078;8.720;2022-10-31T00:03:18;12.50;99.90
23815;DHT22;12088;53.078;8.720;2022-10-31T00:05:46;12.40;99.90
23815;DHT22;12088;53.078;8.720;2022-10-31T00:08:11;12.50;99.90
23815;DHT22;12088;53.078;8.720;2022-10-31T00:10:41;12.50;99.90
23815;DHT22;12088;53.078;8.720;2022-10-31T00:13:07;12.50;99.90
23815;DHT22;12088;53.078;8.720;2022-10-31T00:15:38;12.60;99.90
23815;DHT22;12088;53.078;8.720;2022-10-31T00:18:07;12.60;99.90
23815;DHT22;12088;53.078;8.720;2022-10-31T00:20:33;12.60;99.90
23815;DHT22;12088;53.078;8.720;2022-10-31T00:22:59;12.50;99.90
23815;DHT22;12088;53.078;8.720;2022-10-31T00:25:26;12.40;99.90
23815;DHT22;12088;53.078;8.720;2022-10-31T00:27:52;12.40;99.90
23815;DHT22;12088;53.078;8.720;2022-10-31T00:30:18;12.40;99.90
23815;DHT22;12088;53.078;8.720;2022-10-31T00:32:43;12.40;99.90
23815;DHT22;12088;53.078;8.720;2022-10-31T00:35:09;12.40;99.90
23815;DHT22;12088;53.078;8.720;2022-10-31T00:37:34;12.40;99.90
23815;DHT22;12088;53.078;8.720;2022-10-31T00:40:00;12.30;99.90
23815;DHT22;12088;53.078;8.720;2022-10-31T00:42:26;12.30;99.90
23815;DHT22;12088;53.078;8.720;2022-10-31T00:44:51;12.40;99.90
23815;DHT22;12088;53.078;8.720;2022-10-31T00:47:16;12.40;99.90
23815;DHT22;12088;53.078;8.720;2022-10-31T00:49:42;12.40;99.90
23815;DHT22;12088;53.078;8.720;2022-10-31T00:52:08;12.40;99.90
23815;DHT22;12088;53.078;8.720;2022-10-31T00:54:33;12.40;99.90
23815;DHT22;12088;53.078;8.720;2022-10-31T00:56:59;12.40;99.90
23815;DHT22;12088;53.078;8.720;2022-10-31T00:59:24;12.40;99.90
23815;DHT22;12088;53.078;8.720;2022-10-31T01:01:50;12.30;99.90
23815;DHT22;12088;53.078;8.720;2022-10-31T01:04:15;12.30;99.90
23815;DHT22;12088;53.078;8.720;2022-10-31T01:06:41;12.30;99.90
23815;DHT22;12088;53.078;8.720;2022-10-31T01:09:07;12.30;99.90
23815;DHT22;12088;53.078;8.720;2022-10-31T01:11:32;12.30;99.90
23815;DHT22;12088;53.078;8.720;2022-10-31T01:13:58;12.30;99.90
23815;DHT22;12088;53.078;8.720;2022-10-31T01:16:25;12.30;99.90
23815;DHT22;12088;53.078;8.720;2022-10-31T01:18:51;12.20;99.90
23815;DHT22;12088;53.078;8.720;2022-10-31T01:21:21;12.20;99.90
23815;DHT22;12088;53.078;8.720;2022-10-31T01:23:46;12.20;99.90
23815;DHT22;12088;53.078;8.720;2022-10-31T01:26:21;12.20;99.90
23815;DHT22;12088;53.078;8.720;2022-10-31T01:28:47;12.20;99.90
23815;DHT22;12088;53.078;8.720;2022-10-31T01:31:14;12.20;99.90
23815;DHT22;12088;53.078;8.720;2022-10-31T01:33:39;12.20;99.90
23815;DHT22;12088;53.078;8.720;2022-10-31T01:36:35;12.20;99.90
23815;DHT22;12088;53.078;8.720;2022-10-31T01:39:03;12.20;99.90
23815;DHT22;12088;53.078;8.720;2022-10-31T01:41:33;12.10;99.90
23815;DHT22;12088;53.078;8.720;2022-10-31T01:46:45;12.00;99.90
23815;DHT22;12088;53.078;8.720;2022-10-31T01:49:33;11.90;99.90
23815;DHT22;12088;53.078;8.720;2022-10-31T01:52:12;11.90;99.90
23815;DHT22;12088;53.078;8.720;2022-10-31T01:54:47;11.90;99.90
23815;DHT22;12088;53.078;8.720;2022-10-31T01:57:14;11.90;99.90
23815;DHT22;12088;53.078;8.720;2022-10-31T01:59:44;11.80;99.90
23815;DHT22;12088;53.078;8.720;2022-10-31T02:02:12;11.90;99.90
23815;DHT22;12088;53.078;8.720;2022-10-31T02:04:38;11.90;99.90
23815;DHT22;12088;53.078;8.720;2022-10-31T02:07:12;11.80;99.90
23815;DHT22;12088;53.078;8.720;2022-10-31T02:09:39;11.80;99.90
23815;DHT22;12088;53.078;8.720;2022-10-31T02:12:06;11.80;99.90
23815;DHT22;12088;53.078;8.720;2022-10-31T02:14:34;11.80;99.90
23815;DHT22;12088;53.078;8.720;2022-10-31T02:17:00;11.90;99.90
23815;DHT22;12088;53.078;8.720;2022-10-31T02:22:50;11.90;99.90
23815;DHT22;12088;53.078;8.720;2022-10-31T02:25:40;11.90;99.90
23815;DHT22;12088;53.078;8.720;2022-10-31T02:33:25;11.70;99.90
23815;DHT22;12088;53.078;8.720;2022-10-31T02:36:06;11.70;99.90
23815;DHT22;12088;53.078;8.720;2022-10-31T02:38:56;11.70;99.90
23815;DHT22;12088;53.078;8.720;2022-10-31T02:47:15;11.70;99.90
23815;DHT22;12088;53.078;8.720;2022-10-31T02:52:21;11.90;99.90
23815;DHT22;12088;53.078;8.720;2022-10-31T02:54:49;11.90;99.90
23815;DHT22;12088;53.078;8.720;2022-10-31T02:57:17;11.90;99.90
23815;DHT22;12088;53.078;8.720;2022-10-31T02:59:47;11.80;99.90
23815;DHT22;12088;53.078;8.720;2022-10-31T03:13:10;11.20;99.90
23815;DHT22;12088;53.078;8.720;2022-10-31T03:15:43;11.20;99.90
23815;DHT22;12088;53.078;8.720;2022-10-31T03:20:58;11.20;99.90
23815;DHT22;12088;53.078;8.720;2022-10-31T03:23:25;11.20;99.90
23815;DHT22;12088;53.078;8.720;2022-10-31T03:25:53;11.20;99.90
23815;DHT22;12088;53.078;8.720;2022-10-31T03:28:23;11.20;99.90
23815;DHT22;12088;53.078;8.720;2022-10-31T03:30:53;11.10;99.90
23815;DHT22;12088;53.078;8.720;2022-10-31T03:33:23;11.10;99.90
23815;DHT22;12088;53.078;8.720;2022-10-31T03:35:52;11.10;99.90
23815;DHT22;12088;53.078;8.720;2022-10-31T03:38:20;11.20;99.90
23815;DHT22;12088;53.078;8.720;2022-10-31T03:40:48;11.10;99.90
23815;DHT22;12088;53.078;8.720;2022-10-31T03:43:19;11.10;99.90
23815;DHT22;12088;53.078;8.720;2022-10-31T03:45:47;11.20;99.90
23815;DHT22;12088;53.078;8.720;2022-10-31T03:48:14;11.10;99.90
23815;DHT22;12088;53.078;8.720;2022-10-31T03:51:14;11.10;99.90
23815;DHT22;12088;53.078;8.720;2022-10-31T03:54:08;11.20;99.90
23815;DHT22;12088;53.078;8.720;2022-10-31T03:56:40;11.20;99.90
23815;DHT22;12088;53.078;8.720;2022-10-31T03:59:25;11.20;99.90
23815;DHT22;12088;53.078;8.720;2022-10-31T04:01:56;11.40;99.90
23815;DHT22;12088;53.078;8.720;2022-10-31T04:04:24;11.50;99.90
23815;DHT22;12088;53.078;8.720;2022-10-31T04:06:50;11.60;99.90
23815;DHT22;12088;53.078;8.720;2022-10-31T04:09:17;11.50;99.90
23815;DHT22;12088;53.078;8.720;2022-10-31T04:11:48;11.50;99.90
23815;DHT22;12088;53.078;8.720;2022-10-31T04:14:15;11.50;99.90
23815;DHT22;12088;53.078;8.720;2022-10-31T04:16:43;11.60;99.90
23815;DHT22;12088;53.078;8.720;2022-10-31T04:19:09;11.80;99.90
23815;DHT22;12088;53.078;8.720;2022-10-31T04:21:35;11.90;99.90
23815;DHT22;12088;53.078;8.720;2022-10-31T04:24:00;12.00;99.90
23815;DHT22;12088;53.078;8.720;2022-10-31T04:26:26;12.00;99.90
23815;DHT22;12088;53.078;8.720;2022-10-31T04:28:51;12.00;99.90
23815;DHT22;12088;53.078;8.720;2022-10-31T04:31:17;12.10;99.90
23815;DHT22;12088;53.078;8.720;2022-10-31T04:33:43;12.10;99.90
23815;DHT22;12088;53.078;8.720;2022-10-31T04:36:09;12.20;99.90
23815;DHT22;12088;53.078;8.720;2022-10-31T04:38:34;12.20;99.90
23815;DHT22;12088;53.078;8.720;2022-10-31T04:41:00;12.20;99.90
23815;DHT22;12088;53.078;8.720;2022-10-31T04:43:25;12.20;99.90
23815;DHT22;12088;53.078;8.720;2022-10-31T04:45:51;12.20;99.90
23815;DHT22;12088;53.078;8.720;2022-10-31T04:48:16;12.20;99.90
23815;DHT22;12088;53.078;8.720;2022-10-31T04:50:42;12.20;99.90
23815;DHT22;12088;53.078;8.720;2022-10-31T04:53:08;12.20;99.90
23815;DHT22;12088;53.078;8.720;2022-10-31T04:55:35;12.20;99.90
23815;DHT22;12088;53.078;8.720;2022-10-31T04:58:01;12.20;99.90
23815;DHT22;12088;53.078;8.720;2022-10-31T05:00:27;12.10;99.90
23815;DHT22;12088;53.078;8.720;2022-10-31T05:02:54;12.20;99.90
23815;DHT22;12088;53.078;8.720;2022-10-31T05:05:22;12.10;99.90
23815;DHT22;12088;53.078;8.720;2022-10-31T05:07:49;12.10;99.90
23815;DHT22;12088;53.078;8.720;2022-10-31T05:10:17;12.00;99.90
23815;DHT22;12088;53.078;8.720;2022-10-31T05:12:48;12.00;99.90
23815;DHT22;12088;53.078;8.720;2022-10-31T05:15:14;12.00;99.90
23815;DHT22;12088;53.078;8.720;2022-10-31T05:17:40;12.00;99.90
23815;DHT22;12088;53.078;8.720;2022-10-31T05:20:05;11.90;99.90
23815;DHT22;12088;53.078;8.720;2022-10-31T05:22:31;11.90;99.90
23815;DHT22;12088;53.078;8.720;2022-10-31T05:24:56;11.80;99.90
23815;DHT22;12088;53.078;8.720;2022-10-31T05:27:22;11.90;99.90
23815;DHT22;12088;53.078;8.720;2022-10-31T05:29:48;11.90;99.90
23815;DHT22;12088;53.078;8.720;2022-10-31T05:32:13;11.90;99.90
23815;DHT22;12088;53.078;8.720;2022-10-31T05:34:38;11.80;99.90
23815;DHT22;12088;53.078;8.720;2022-10-31T05:37:04;11.80;99.90
23815;DHT22;12088;53.078;8.720;2022-10-31T05:39:30;11.80;99.90
23815;DHT22;12088;53.078;8.720;2022-10-31T05:41:55;11.80;99.90
23815;DHT22;12088;53.078;8.720;2022-10-31T05:44:21;11.80;99.90
23815;DHT22;12088;53.078;8.720;2022-10-31T05:46:46;11.80;99.90
23815;DHT22;12088;53.078;8.720;2022-10-31T05:49:12;11.80;99.90
23815;DHT22;12088;53.078;8.720;2022-10-31T05:51:41;11.70;99.90
23815;DHT22;12088;53.078;8.720;2022-10-31T05:54:06;11.70;99.90
23815;DHT22;12088;53.078;8.720;2022-10-31T05:56:31;11.60;99.90
23815;DHT22;12088;53.078;8.720;2022-10-31T05:58:57;11.60;99.90
23815;DHT22;12088;53.078;8.720;2022-10-31T06:01:22;11.50;99.90
23815;DHT22;12088;53.078;8.720;2022-10-31T06:03:48;11.50;99.90
23815;DHT22;12088;53.078;8.720;2022-10-31T06:06:13;11.40;99.90
23815;DHT22;12088;53.078;8.720;2022-10-31T06:08:40;11.40;99.90
23815;DHT22;12088;53.078;8.720;2022-10-31T06:11:05;11.30;99.90
23815;DHT22;12088;53.078;8.720;2022-10-31T06:13:31;11.30;99.90
23815;DHT22;12088;53.078;8.720;2022-10-31T06:15:56;11.20;99.90
23815;DHT22;12088;53.078;8.720;2022-10-31T06:18:22;11.20;99.90
23815;DHT22;12088;53.078;8.720;2022-10-31T06:20:47;11.10;99.90
23815;DHT22;12088;53.078;8.720;2022-10-31T06:23:13;10.90;99.90
23815;DHT22;12088;53.078;8.720;2022-10-31T06:25:38;10.80;99.90
23815;DHT22;12088;53.078;8.720;2022-10-31T06:28:04;10.60;99.90
23815;DHT22;12088;53.078;8.720;2022-10-31T06:30:30;10.50;99.90
23815;DHT22;12088;53.078;8.720;2022-10-31T06:33:04;10.50;99.90
23815;DHT22;12088;53.078;8.720;2022-10-31T06:37:56;10.40;99.90
23815;DHT22;12088;53.078;8.720;2022-10-31T08:00:52;11.30;99.90
23815;DHT22;12088;53.078;8.720;2022-10-31T08:08:11;11.50;99.90
23815;DHT22;12088;53.078;8.720;2022-10-31T09:52:02;15.60;99.90
23815;DHT22;12088;53.078;8.720;2022-10-31T09:54:41;16.00;99.90
23815;DHT22;12088;53.078;8.720;2022-10-31T09:57:16;16.60;99.90
23815;DHT22;12088;53.078;8.720;2022-10-31T09:59:44;17.00;99.90
23815;DHT22;12088;53.078;8.720;2022-10-31T10:02:25;17.20;99.90
23815;DHT22;12088;53.078;8.720;2022-10-31T10:05:04;16.90;99.90
23815;DHT22;12088;53.078;8.720;2022-10-31T10:10:02;18.10;99.90
23815;DHT22;12088;53.078;8.720;2022-10-31T10:18:01;17.50;99.90
23815;DHT22;12088;53.078;8.720;2022-10-31T10:23:34;17.30;99.90
23815;DHT22;12088;53.078;8.720;2022-10-31T10:26:17;17.70;99.90
23815;DHT22;12088;53.078;8.720;2022-10-31T10:28:57;18.10;99.90
23815;DHT22;12088;53.078;8.720;2022-10-31T10:31:33;17.70;99.90
23815;DHT22;12088;53.078;8.720;2022-10-31T10:34:07;17.70;99.90
23815;DHT22;12088;53.078;8.720;2022-10-31T10:36:45;18.50;99.90
23815;DHT22;12088;53.078;8.720;2022-10-31T10:39:16;17.90;99.90
23815;DHT22;12088;53.078;8.720;2022-10-31T10:41:47;17.70;99.90
23815;DHT22;12088;53.078;8.720;2022-10-31T10:44:36;17.70;99.90
23815;DHT22;12088;53.078;8.720;2022-10-31T10:47:21;17.90;99.90
23815;DHT22;12088;53.078;8.720;2022-10-31T10:50:17;18.10;99.90
23815;DHT22;12088;53.078;8.720;2022-10-31T10:55:38;18.20;99.90
23815;DHT22;12088;53.078;8.720;2022-10-31T10:58:09;18.20;99.90
23815;DHT22;12088;53.078;8.720;2022-10-31T11:03:05;18.70;99.90
23815;DHT22;12088;53.078;8.720;2022-10-31T11:05:39;18.90;99.90
23815;DHT22;12088;53.078;8.720;2022-10-31T11:08:06;19.70;99.90
23815;DHT22;12088;53.078;8.720;2022-10-31T11:10:32;20.40;99.90
23815;DHT22;12088;53.078;8.720;2022-10-31T11:15:56;21.60;99.90
23815;DHT22;12088;53.078;8.720;2022-10-31T11:18:25;21.40;99.90
23815;DHT22;12088;53.078;8.720;2022-10-31T11:20:54;22.30;99.90
23815;DHT22;12088;53.078;8.720;2022-10-31T11:23:22;22.60;99.90
23815;DHT22;12088;53.078;8.720;2022-10-31T11:26:01;22.40;99.90
23815;DHT22;12088;53.078;8.720;2022-10-31T11:28:29;20.80;99.90
23815;DHT22;12088;53.078;8.720;2022-10-31T11:31:05;20.80;99.90
23815;DHT22;12088;53.078;8.720;2022-10-31T11:33:36;20.00;99.90
23815;DHT22;12088;53.078;8.720;2022-10-31T11:36:23;20.50;99.90
23815;DHT22;12088;53.078;8.720;2022-10-31T11:38:50;20.20;99.90
23815;DHT22;12088;53.078;8.720;2022-10-31T11:41:25;20.00;99.90
23815;DHT22;12088;53.078;8.720;2022-10-31T11:44:09;19.90;99.90
23815;DHT22;12088;53.078;8.720;2022-10-31T11:46:39;20.00;99.90
23815;DHT22;12088;53.078;8.720;2022-10-31T11:49:11;18.80;99.90
23815;DHT22;12088;53.078;8.720;2022-10-31T11:51:39;18.90;99.90
23815;DHT22;12088;53.078;8.720;2022-10-31T11:54:05;18.90;99.90
23815;DHT22;12088;53.078;8.720;2022-10-31T11:56:38;18.80;99.90
23815;DHT22;12088;53.078;8.720;2022-10-31T11:59:24;18.10;99.90
23815;DHT22;12088;53.078;8.720;2022-10-31T12:01:51;18.40;99.90
23815;DHT22;12088;53.078;8.720;2022-10-31T12:04:17;17.70;99.90
23815;DHT22;12088;53.078;8.720;2022-10-31T12:06:44;17.90;99.90
23815;DHT22;12088;53.078;8.720;2022-10-31T12:09:23;18.10;99.90
23815;DHT22;12088;53.078;8.720;2022-10-31T12:12:02;18.10;99.90
23815;DHT22;12088;53.078;8.720;2022-10-31T12:14:45;18.80;99.90
23815;DHT22;12088;53.078;8.720;2022-10-31T12:17:18;19.60;99.90
23815;DHT22;12088;53.078;8.720;2022-10-31T12:22:47;20.10;99.90
23815;DHT22;12088;53.078;8.720;2022-10-31T12:25:33;19.50;99.90
23815;DHT22;12088;53.078;8.720;2022-10-31T12:30:59;19.30;99.90
23815;DHT22;12088;53.078;8.720;2022-10-31T12:33:43;18.30;99.90
23815;DHT22;12088;53.078;8.720;2022-10-31T12:44:25;17.00;99.90
23815;DHT22;12088;53.078;8.720;2022-10-31T12:52:55;17.00;99.90
23815;DHT22;12088;53.078;8.720;2022-10-31T12:58:02;16.80;99.90
23815;DHT22;12088;53.078;8.720;2022-10-31T13:00:31;16.60;99.90
23815;DHT22;12088;53.078;8.720;2022-10-31T13:05:44;16.30;99.90
23815;DHT22;12088;53.078;8.720;2022-10-31T13:08:12;16.20;99.90
23815;DHT22;12088;53.078;8.720;2022-10-31T13:10:49;16.00;99.90
23815;DHT22;12088;53.078;8.720;2022-10-31T13:13:19;15.80;99.90
23815;DHT22;12088;53.078;8.720;2022-10-31T13:15:57;15.80;99.90
23815;DHT22;12088;53.078;8.720;2022-10-31T13:18:39;15.60;99.90
23815;DHT22;12088;53.078;8.720;2022-10-31T13:21:20;15.60;99.90
23815;DHT22;12088;53.078;8.720;2022-10-31T13:23:49;15.50;99.90
23815;DHT22;12088;53.078;8.720;2022-10-31T13:26:41;15.40;99.90
23815;DHT22;12088;53.078;8.720;2022-10-31T13:31:49;15.40;99.90
23815;DHT22;12088;53.078;8.720;2022-10-31T13:37:00;15.50;99.90
23815;DHT22;12088;53.078;8.720;2022-10-31T23:29:22;12.90;99.90
